createdAt,value
2018-09-21T00:02:17.064Z,10.93
2018-09-21T00:04:45.416Z,11.23
2018-09-21T00:07:13.705Z,13.80
2018-09-21T00:09:42.030Z,10.70
2018-09-21T00:12:10.353Z,10.03
2018-09-21T00:14:38.657Z,10.17
2018-09-21T00:17:06.984Z,7.00
2018-09-21T00:19:35.301Z,10.23
2018-09-21T00:22:03.633Z,11.13
2018-09-21T00:24:31.984Z,9.70
2018-09-21T00:27:03.884Z,9.43
2018-09-21T00:29:32.185Z,14.87
2018-09-21T00:32:00.505Z,9.20
2018-09-21T00:34:28.834Z,11.93
2018-09-21T00:36:57.162Z,10.17
2018-09-21T00:39:25.481Z,11.03
2018-09-21T00:41:53.853Z,9.47
2018-09-21T00:44:22.177Z,13.03
2018-09-21T00:46:50.558Z,10.73
2018-09-21T00:49:18.896Z,13.50
2018-09-21T00:51:47.220Z,9.33
2018-09-21T00:54:15.630Z,10.10
2018-09-21T00:56:44.053Z,11.73
2018-09-21T00:59:12.390Z,9.33
2018-09-21T01:01:40.747Z,8.77
2018-09-21T01:04:09.112Z,11.00
2018-09-21T01:06:37.416Z,9.27
2018-09-21T01:09:08.223Z,12.80
2018-09-21T01:11:36.548Z,12.20
2018-09-21T01:14:04.892Z,10.10
2018-09-21T01:16:33.173Z,7.77
2018-09-21T01:19:01.506Z,8.67
2018-09-21T01:21:29.813Z,8.73
2018-09-21T01:23:58.150Z,13.27
2018-09-21T01:26:26.506Z,9.43
2018-09-21T01:28:54.857Z,11.30
2018-09-21T01:31:23.601Z,8.90
2018-09-21T01:33:51.912Z,10.40
2018-09-21T01:36:20.225Z,11.37
2018-09-21T01:38:48.542Z,10.00
2018-09-21T01:41:16.881Z,11.43
2018-09-21T01:43:45.174Z,15.53
2018-09-21T01:46:13.493Z,7.93
2018-09-21T01:48:41.811Z,10.90
2018-09-21T01:51:10.175Z,12.13
2018-09-21T01:53:38.525Z,11.97
2018-09-21T01:56:06.833Z,13.20
2018-09-21T01:58:35.130Z,12.83
2018-09-21T02:01:03.477Z,11.83
2018-09-21T02:03:31.797Z,12.10
2018-09-21T02:06:00.091Z,9.00
2018-09-21T02:08:28.420Z,9.63
2018-09-21T02:10:56.774Z,11.03
2018-09-21T02:13:25.152Z,11.47
2018-09-21T02:15:53.488Z,12.20
2018-09-21T02:18:21.821Z,8.10
2018-09-21T02:20:50.113Z,11.37
2018-09-21T02:23:18.424Z,12.93
2018-09-21T02:25:46.764Z,12.83
2018-09-21T02:28:15.057Z,14.67
2018-09-21T02:30:43.392Z,9.47
2018-09-21T02:33:11.709Z,12.87
2018-09-21T02:35:40.038Z,10.20
2018-09-21T02:38:08.481Z,10.57
2018-09-21T02:40:36.809Z,11.17
2018-09-21T02:43:05.328Z,12.60
2018-09-21T02:45:33.608Z,8.87
2018-09-21T02:48:01.972Z,10.40
2018-09-21T02:50:30.238Z,10.27
2018-09-21T02:52:58.515Z,11.17
2018-09-21T02:55:26.801Z,8.17
2018-09-21T02:57:55.091Z,10.57
2018-09-21T03:00:23.373Z,9.30
2018-09-21T03:02:52.713Z,9.17
2018-09-21T03:05:20.993Z,8.70
2018-09-21T03:07:49.341Z,10.63
2018-09-21T03:10:17.640Z,9.87
2018-09-21T03:12:45.959Z,12.07
2018-09-21T03:15:14.323Z,10.60
2018-09-21T03:17:42.609Z,14.23
2018-09-21T03:20:10.943Z,12.23
2018-09-21T03:22:39.360Z,9.10
2018-09-21T03:25:07.709Z,7.03
2018-09-21T03:27:36.010Z,9.17
2018-09-21T03:30:04.504Z,9.93
2018-09-21T03:32:32.801Z,10.93
2018-09-21T03:35:01.093Z,10.83
2018-09-21T03:37:29.385Z,9.63
2018-09-21T03:39:57.662Z,11.23
2018-09-21T03:42:25.983Z,10.77
2018-09-21T03:44:54.475Z,11.03
2018-09-21T03:47:22.819Z,12.40
2018-09-21T03:49:51.108Z,11.67
2018-09-21T03:52:19.377Z,6.73
2018-09-21T03:54:48.004Z,9.43
2018-09-21T03:57:16.271Z,15.80
2018-09-21T03:59:44.551Z,11.70
2018-09-21T04:02:12.849Z,12.10
2018-09-21T04:04:41.873Z,11.43
2018-09-21T04:07:10.579Z,10.80
2018-09-21T04:09:38.876Z,9.47
2018-09-21T04:12:07.292Z,8.17
2018-09-21T04:14:35.720Z,10.23
2018-09-21T04:17:04.072Z,8.13
2018-09-21T04:19:32.361Z,9.57
2018-09-21T04:22:00.669Z,11.00
2018-09-21T04:24:28.940Z,8.37
2018-09-21T04:26:57.411Z,10.53
2018-09-21T04:29:25.734Z,8.33
2018-09-21T04:31:54.016Z,9.30
2018-09-21T04:34:22.293Z,9.93
2018-09-21T04:36:50.814Z,13.07
2018-09-21T04:39:19.228Z,8.40
2018-09-21T04:41:47.563Z,11.33
2018-09-21T04:44:15.844Z,9.83
2018-09-21T04:46:44.143Z,10.50
2018-09-21T04:49:12.440Z,10.73
2018-09-21T04:51:40.748Z,8.77
2018-09-21T04:54:09.080Z,7.67
2018-09-21T04:56:37.372Z,8.73
2018-09-21T04:59:05.672Z,11.47
2018-09-21T05:01:33.980Z,9.20
2018-09-21T05:04:02.399Z,9.77
2018-09-21T05:06:30.692Z,14.27
2018-09-21T05:08:59.032Z,11.13
2018-09-21T05:11:27.512Z,8.13
2018-09-21T05:13:55.872Z,12.20
2018-09-21T05:16:25.228Z,12.17
2018-09-21T05:18:53.520Z,9.17
2018-09-21T05:21:22.024Z,14.43
2018-09-21T05:23:50.316Z,8.57
2018-09-21T05:26:18.647Z,12.67
2018-09-21T05:28:46.944Z,11.53
2018-09-21T05:31:15.244Z,12.23
2018-09-21T05:33:44.608Z,12.53
2018-09-21T05:36:12.901Z,9.60
2018-09-21T05:38:42.115Z,9.00
2018-09-21T05:41:10.429Z,14.20
2018-09-21T05:43:48.556Z,13.83
2018-09-21T05:46:16.888Z,10.20
2018-09-21T05:48:46.068Z,12.97
2018-09-21T05:51:14.651Z,9.90
2018-09-21T05:53:42.990Z,11.67
2018-09-21T05:56:11.650Z,15.37
2018-09-21T05:58:39.900Z,13.10
2018-09-21T06:01:08.336Z,14.73
2018-09-21T06:03:37.496Z,12.17
2018-09-21T06:06:06.235Z,10.63
2018-09-21T06:08:34.564Z,11.50
2018-09-21T06:11:02.863Z,11.40
2018-09-21T06:13:31.194Z,12.50
2018-09-21T06:15:59.432Z,11.90
2018-09-21T06:18:27.767Z,12.77
2018-09-21T06:20:56.076Z,11.03
2018-09-21T06:23:24.372Z,8.80
2018-09-21T06:25:52.664Z,14.80
2018-09-21T06:28:20.963Z,12.80
2018-09-21T06:30:49.404Z,9.83
2018-09-21T06:33:17.708Z,12.33
2018-09-21T06:35:46.324Z,11.53
2018-09-21T06:38:14.616Z,8.47
2018-09-21T06:40:42.900Z,14.00
2018-09-21T06:43:11.200Z,17.07
2018-09-21T06:45:39.500Z,9.17
2018-09-21T06:48:07.776Z,11.47
2018-09-21T06:50:36.119Z,17.47
2018-09-21T06:53:04.459Z,10.10
2018-09-21T06:55:33.112Z,11.90
2018-09-21T06:58:01.483Z,13.47
2018-09-21T07:00:29.783Z,12.43
2018-09-21T07:02:58.128Z,14.73
2018-09-21T07:05:26.391Z,10.80
2018-09-21T07:07:54.713Z,8.63
2018-09-21T07:10:23.027Z,8.23
2018-09-21T07:12:51.288Z,8.07
2018-09-21T07:15:19.576Z,13.33
2018-09-21T07:17:47.887Z,9.93
2018-09-21T07:20:16.148Z,10.20
2018-09-21T07:22:44.527Z,9.90
2018-09-21T07:25:12.791Z,12.53
2018-09-21T07:27:41.091Z,11.63
2018-09-21T07:30:09.418Z,13.77
2018-09-21T07:32:37.773Z,9.77
2018-09-21T07:35:06.079Z,13.10
2018-09-21T07:37:34.450Z,9.43
2018-09-21T07:40:03.143Z,11.97
2018-09-21T07:42:31.475Z,8.83
2018-09-21T07:44:59.741Z,19.07
2018-09-21T07:47:28.031Z,14.83
2018-09-21T07:49:56.295Z,17.40
2018-09-21T07:52:24.685Z,13.40
2018-09-21T07:54:52.989Z,7.83
2018-09-21T07:57:21.304Z,10.87
2018-09-21T07:59:49.615Z,12.73
2018-09-21T08:02:17.940Z,11.40
2018-09-21T08:04:46.440Z,11.23
2018-09-21T08:07:14.761Z,13.23
2018-09-21T08:09:43.014Z,9.80
2018-09-21T08:12:11.315Z,9.17
2018-09-21T08:14:39.604Z,14.67
2018-09-21T08:17:07.876Z,6.63
2018-09-21T08:19:36.396Z,8.57
2018-09-21T08:22:04.560Z,8.53
2018-09-21T08:24:32.853Z,16.30
2018-09-21T08:27:01.236Z,15.70
2018-09-21T08:29:29.517Z,13.93
2018-09-21T08:31:57.813Z,10.27
2018-09-21T08:34:26.103Z,13.10
2018-09-21T08:36:54.395Z,16.10
2018-09-21T08:39:22.664Z,17.60
2018-09-21T08:41:50.979Z,14.60
2018-09-21T08:44:19.276Z,8.50
2018-09-21T08:46:47.581Z,13.03
2018-09-21T08:49:15.848Z,16.93
2018-09-21T08:51:44.168Z,13.53
2018-09-21T08:54:12.440Z,13.30
2018-09-21T08:56:40.747Z,14.57
2018-09-21T08:59:09.089Z,11.13
2018-09-21T09:01:37.391Z,10.13
2018-09-21T09:04:05.704Z,12.87
2018-09-21T09:06:33.999Z,10.87
2018-09-21T09:09:02.292Z,17.40
2018-09-21T09:11:30.595Z,16.87
2018-09-21T09:13:58.864Z,17.00
2018-09-21T09:16:27.158Z,12.67
2018-09-21T09:18:55.428Z,10.37
2018-09-21T09:21:23.714Z,15.10
2018-09-21T09:23:52.016Z,12.03
2018-09-21T09:26:20.332Z,16.80
2018-09-21T09:28:48.620Z,16.80
2018-09-21T09:31:16.908Z,13.33
2018-09-21T09:33:45.227Z,13.87
2018-09-21T09:36:13.534Z,13.80
2018-09-21T09:38:41.807Z,21.73
2018-09-21T09:41:10.109Z,18.97
2018-09-21T09:43:38.552Z,22.33
2018-09-21T09:46:07.424Z,14.90
2018-09-21T09:48:35.909Z,22.53
2018-09-21T09:51:04.144Z,28.20
2018-09-21T09:53:32.459Z,30.63
2018-09-21T09:56:00.732Z,41.00
2018-09-21T09:58:29.010Z,27.93
2018-09-21T10:00:57.304Z,40.73
2018-09-21T10:03:48.271Z,32.27
2018-09-21T10:06:16.610Z,30.93
2018-09-21T10:08:44.868Z,27.70
2018-09-21T10:11:16.872Z,31.40
2018-09-21T10:13:45.167Z,23.07
2018-09-21T10:16:13.431Z,28.83
2018-09-21T10:18:41.735Z,21.93
2018-09-21T10:21:10.052Z,24.37
2018-09-21T10:23:38.326Z,27.17
2018-09-21T10:26:06.811Z,15.97
2018-09-21T10:28:35.345Z,16.63
2018-09-21T10:31:03.396Z,12.03
2018-09-21T10:33:31.737Z,6.87
2018-09-21T10:35:59.975Z,9.13
2018-09-21T10:38:28.252Z,5.73
2018-09-21T10:40:56.572Z,8.00
2018-09-21T10:43:24.857Z,9.00
2018-09-21T10:45:53.139Z,3.63
2018-09-21T10:48:21.428Z,8.07
2018-09-21T10:50:49.731Z,6.27
2018-09-21T10:53:17.991Z,5.43
2018-09-21T10:55:46.284Z,18.47
2018-09-21T10:58:14.564Z,44.33
2018-09-21T11:00:42.856Z,11.73
2018-09-21T11:03:11.170Z,10.53
2018-09-21T11:05:39.553Z,14.53
2018-09-21T11:08:07.857Z,10.23
2018-09-21T11:10:36.134Z,9.47
2018-09-21T11:13:04.449Z,14.37
2018-09-21T11:15:32.721Z,12.53
2018-09-21T11:18:01.009Z,11.57
2018-09-21T11:20:29.280Z,12.23
2018-09-21T11:22:57.575Z,13.33
2018-09-21T11:25:25.848Z,16.53
2018-09-21T11:27:54.153Z,12.40
2018-09-21T11:30:22.440Z,14.97
2018-09-21T11:32:50.736Z,18.53
2018-09-21T11:35:19.004Z,13.83
2018-09-21T11:37:47.328Z,21.30
2018-09-21T11:40:15.600Z,18.97
2018-09-21T11:42:43.920Z,12.13
2018-09-21T11:45:12.220Z,19.13
2018-09-21T11:47:40.579Z,20.63
2018-09-21T11:50:08.831Z,17.67
2018-09-21T11:52:37.112Z,18.73
2018-09-21T11:55:05.407Z,22.67
2018-09-21T11:57:33.721Z,22.83
2018-09-21T12:00:02.052Z,22.17
2018-09-21T12:02:30.336Z,25.93
2018-09-21T12:04:58.657Z,18.37
2018-09-21T12:07:26.955Z,20.80
2018-09-21T12:09:55.244Z,22.30
2018-09-21T12:12:23.512Z,22.17
2018-09-21T12:14:51.963Z,23.43
2018-09-21T12:17:20.232Z,21.37
2018-09-21T12:19:48.540Z,21.57
2018-09-21T12:22:16.932Z,18.87
2018-09-21T12:24:45.232Z,19.47
2018-09-21T12:27:13.528Z,24.30
2018-09-21T12:29:41.821Z,24.43
2018-09-21T12:32:10.123Z,15.40
2018-09-21T12:34:38.417Z,21.83
2018-09-21T12:37:06.714Z,26.30
2018-09-21T12:39:35.024Z,21.13
2018-09-21T12:42:03.391Z,22.53
2018-09-21T12:44:31.681Z,19.63
2018-09-21T12:46:59.956Z,16.23
2018-09-21T12:49:28.274Z,22.10
2018-09-21T12:51:56.616Z,25.00
2018-09-21T12:54:24.925Z,25.33
2018-09-21T12:56:53.228Z,19.50
2018-09-21T12:59:21.528Z,19.73
2018-09-21T13:01:49.832Z,19.30
2018-09-21T13:04:18.123Z,20.50
2018-09-21T13:06:57.559Z,19.33
2018-09-21T13:09:25.848Z,24.77
2018-09-21T13:11:54.147Z,21.27
2018-09-21T13:14:22.544Z,15.40
2018-09-21T13:16:50.835Z,19.57
2018-09-21T13:19:19.115Z,24.97
2018-09-21T13:21:47.433Z,16.10
2018-09-21T13:24:15.728Z,21.40
2018-09-21T13:26:44.062Z,19.27
2018-09-21T13:29:12.642Z,15.77
2018-09-21T13:31:40.908Z,21.97
2018-09-21T13:34:09.276Z,18.30
2018-09-21T13:36:37.585Z,15.87
2018-09-21T13:39:08.644Z,17.73
2018-09-21T13:41:36.955Z,18.43
2018-09-21T13:44:05.263Z,15.30
2018-09-21T13:46:33.584Z,21.10
2018-09-21T13:49:01.863Z,19.10
2018-09-21T13:51:30.132Z,11.23
2018-09-21T13:53:58.527Z,18.47
2018-09-21T13:56:27.699Z,17.03
2018-09-21T13:58:56.455Z,11.13
2018-09-21T14:01:24.756Z,16.93
2018-09-21T14:03:53.085Z,12.03
2018-09-21T14:06:21.355Z,12.90
2018-09-21T14:08:49.671Z,17.40
2018-09-21T14:11:17.949Z,12.53
2018-09-21T14:13:46.260Z,11.90
2018-09-21T14:16:14.583Z,13.80
2018-09-21T14:18:42.876Z,7.37
2018-09-21T14:21:11.308Z,10.10
2018-09-21T14:23:39.608Z,11.00
2018-09-21T14:26:07.984Z,6.20
2018-09-21T14:28:36.380Z,9.67
2018-09-21T14:31:04.672Z,7.83
2018-09-21T14:33:32.943Z,7.20
2018-09-21T14:36:01.286Z,5.53
2018-09-21T14:38:29.580Z,6.67
2018-09-21T14:40:57.860Z,8.53
2018-09-21T14:43:26.163Z,6.97
2018-09-21T14:45:54.535Z,6.20
2018-09-21T14:48:22.802Z,9.20
2018-09-21T14:50:51.087Z,8.97
2018-09-21T14:53:19.389Z,7.30
2018-09-21T14:55:47.703Z,5.47
2018-09-21T14:58:15.995Z,6.47
2018-09-21T15:00:44.307Z,7.03
2018-09-21T15:03:17.128Z,8.30
2018-09-21T15:05:45.452Z,10.77
2018-09-21T15:08:13.766Z,9.37
2018-09-21T15:10:42.056Z,6.93
2018-09-21T15:13:10.356Z,6.07
2018-09-21T15:15:38.619Z,8.37
2018-09-21T15:18:06.935Z,8.40
2018-09-21T15:20:35.231Z,4.77
2018-09-21T15:23:03.519Z,5.87
2018-09-21T15:25:31.974Z,8.43
2018-09-21T15:28:00.239Z,8.43
2018-09-21T15:30:28.515Z,8.70
2018-09-21T15:32:56.835Z,4.93
2018-09-21T15:35:25.126Z,3.70
2018-09-21T15:37:53.451Z,9.40
2018-09-21T15:40:21.800Z,4.93
2018-09-21T15:42:50.076Z,4.33
2018-09-21T15:45:18.360Z,5.00
2018-09-21T15:47:46.695Z,2.37
2018-09-21T15:50:14.965Z,2.77
2018-09-21T15:52:43.294Z,3.90
2018-09-21T15:55:11.588Z,5.97
2018-09-21T15:57:39.904Z,7.57
2018-09-21T16:00:09.963Z,5.70
2018-09-21T16:02:38.336Z,4.13
2018-09-21T16:05:06.680Z,3.33
2018-09-21T16:07:39.664Z,4.67
2018-09-21T16:10:07.960Z,6.90
2018-09-21T16:12:36.292Z,4.20
2018-09-21T16:15:04.756Z,3.93
2018-09-21T16:17:33.099Z,4.37
2018-09-21T16:20:01.436Z,6.27
2018-09-21T16:22:29.768Z,6.63
2018-09-21T16:24:58.484Z,2.60
2018-09-21T16:27:26.747Z,7.40
2018-09-21T16:29:55.134Z,2.97
2018-09-21T16:32:23.379Z,4.47
2018-09-21T16:34:51.680Z,2.50
2018-09-21T16:37:21.117Z,4.27
2018-09-21T16:39:49.392Z,4.13
2018-09-21T16:42:17.663Z,5.43
2018-09-21T16:44:46.038Z,4.93
2018-09-21T16:47:14.292Z,4.70
2018-09-21T16:49:42.884Z,2.57
2018-09-21T16:52:11.296Z,4.63
2018-09-21T16:54:39.589Z,8.07
2018-09-21T16:57:07.977Z,6.17
2018-09-21T16:59:36.233Z,5.53
2018-09-21T17:02:04.555Z,5.37
2018-09-21T17:04:33.066Z,4.20
2018-09-21T17:07:01.244Z,4.10
2018-09-21T17:09:29.548Z,5.83
2018-09-21T17:11:57.844Z,7.13
2018-09-21T17:14:26.117Z,8.47
2018-09-21T17:16:54.432Z,5.43
2018-09-21T17:19:22.716Z,6.33
2018-09-21T17:21:51.244Z,6.13
2018-09-21T17:24:19.569Z,6.53
2018-09-21T17:26:47.948Z,6.83
2018-09-21T17:29:16.168Z,6.50
2018-09-21T17:31:44.550Z,10.80
2018-09-21T17:34:12.883Z,7.73
2018-09-21T17:36:41.168Z,6.67
2018-09-21T17:39:11.512Z,4.63
2018-09-21T17:41:39.803Z,5.43
2018-09-21T17:44:08.212Z,4.17
2018-09-21T17:46:36.504Z,6.07
2018-09-21T17:49:08.524Z,4.90
2018-09-21T17:51:36.893Z,10.57
2018-09-21T17:54:05.207Z,9.97
2018-09-21T17:56:33.496Z,7.57
2018-09-21T17:59:01.793Z,6.37
2018-09-21T18:01:30.124Z,8.03
2018-09-21T18:03:58.420Z,8.23
2018-09-21T18:06:26.699Z,4.70
2018-09-21T18:08:55.004Z,8.63
2018-09-21T18:11:23.364Z,5.57
2018-09-21T18:13:53.743Z,3.47
2018-09-21T18:16:22.083Z,8.53
2018-09-21T18:18:50.361Z,8.93
2018-09-21T18:21:18.783Z,7.17
2018-09-21T18:23:47.101Z,7.47
2018-09-21T18:26:15.374Z,4.70
2018-09-21T18:28:43.828Z,5.23
2018-09-21T18:31:12.115Z,9.10
2018-09-21T18:33:40.403Z,6.20
2018-09-21T18:36:08.707Z,8.00
2018-09-21T18:38:37.008Z,7.77
2018-09-21T18:41:05.296Z,7.13
2018-09-21T18:43:33.592Z,6.50
2018-09-21T18:46:01.868Z,9.40
2018-09-21T18:48:30.165Z,7.67
2018-09-21T18:50:58.448Z,4.93
2018-09-21T18:53:30.488Z,4.70
2018-09-21T18:55:58.794Z,7.93
2018-09-21T18:58:27.064Z,6.37
2018-09-21T19:00:55.334Z,8.10
2018-09-21T19:03:23.640Z,8.33
2018-09-21T19:05:51.940Z,7.53
2018-09-21T19:08:20.232Z,6.43
2018-09-21T19:10:48.503Z,7.83
2018-09-21T19:13:16.813Z,3.90
2018-09-21T19:15:45.100Z,5.07
2018-09-21T19:18:13.407Z,8.93
2018-09-21T19:20:44.995Z,4.00
2018-09-21T19:23:13.275Z,3.63
2018-09-21T19:25:41.739Z,6.60
2018-09-21T19:28:10.080Z,8.13
2018-09-21T19:30:38.351Z,6.13
2018-09-21T19:33:06.674Z,3.03
2018-09-21T19:35:34.951Z,9.53
2018-09-21T19:38:03.212Z,9.00
2018-09-21T19:40:31.495Z,3.57
2018-09-21T19:42:59.786Z,5.47
2018-09-21T19:45:28.103Z,6.97
2018-09-21T19:47:56.340Z,2.60
2018-09-21T19:50:24.755Z,5.47
2018-09-21T19:52:53.024Z,6.90
2018-09-21T19:55:21.581Z,4.60
2018-09-21T19:57:50.392Z,7.23
2018-09-21T20:00:18.687Z,3.37
2018-09-21T20:02:46.983Z,5.03
2018-09-21T20:05:15.272Z,3.07
2018-09-21T20:07:43.571Z,3.97
2018-09-21T20:10:11.859Z,2.17
2018-09-21T20:12:40.135Z,1.73
2018-09-21T20:15:08.431Z,1.87
2018-09-21T20:17:36.719Z,2.60
2018-09-21T20:20:05.016Z,2.73
2018-09-21T20:22:33.388Z,1.40
2018-09-21T20:25:10.710Z,2.67
2018-09-21T20:27:41.664Z,1.90
2018-09-21T20:33:05.599Z,1.97
2018-09-21T20:35:35.912Z,2.07
2018-09-21T20:38:04.184Z,3.50
2018-09-21T20:40:32.477Z,2.83
2018-09-21T20:43:00.859Z,1.50
2018-09-21T20:45:29.151Z,1.70
2018-09-21T20:47:57.490Z,0.93
2018-09-21T20:50:25.752Z,1.70
2018-09-21T20:52:54.037Z,2.20
2018-09-21T20:55:22.324Z,1.27
2018-09-21T20:57:50.603Z,1.83
2018-09-21T21:00:18.908Z,1.13
2018-09-21T21:02:47.247Z,2.30
2018-09-21T21:05:15.532Z,1.50
2018-09-21T21:07:43.808Z,2.43
2018-09-21T21:10:12.098Z,2.37
2018-09-21T21:12:40.392Z,2.50
2018-09-21T21:15:14.912Z,0.90
2018-09-21T21:17:43.291Z,5.77
2018-09-21T21:20:11.672Z,1.53
2018-09-21T21:22:39.951Z,1.00
2018-09-21T21:25:08.467Z,1.67
2018-09-21T21:27:36.737Z,1.27
2018-09-21T21:30:05.119Z,1.50
2018-09-21T21:32:33.424Z,1.50
2018-09-21T21:35:02.775Z,5.20
2018-09-21T21:37:31.260Z,1.57
2018-09-21T21:39:59.548Z,3.57
2018-09-21T21:42:27.889Z,0.83
2018-09-21T21:44:56.212Z,1.47
2018-09-21T21:47:24.827Z,1.50
2018-09-21T21:49:53.100Z,0.70
2018-09-21T21:52:21.389Z,0.80
2018-09-21T21:54:49.672Z,0.90
2018-09-21T21:57:18.107Z,3.67
2018-09-21T21:59:46.468Z,1.67
2018-09-21T22:02:14.733Z,1.03
2018-09-21T22:04:43.031Z,2.43
2018-09-21T22:07:12.549Z,1.57
2018-09-21T22:09:40.939Z,0.83
2018-09-21T22:12:14.631Z,1.50
2018-09-21T22:14:42.931Z,1.60
2018-09-21T22:17:11.308Z,1.07
2018-09-21T22:19:39.588Z,5.60
2018-09-21T22:22:07.872Z,0.80
2018-09-21T22:24:36.180Z,1.20
2018-09-21T22:27:04.488Z,1.63
2018-09-21T22:29:32.816Z,2.67
2018-09-21T22:32:01.164Z,2.43
2018-09-21T22:34:29.452Z,0.80
2018-09-21T22:36:57.755Z,1.87
2018-09-21T22:39:26.031Z,1.40
2018-09-21T22:41:54.320Z,3.03
2018-09-21T22:44:22.635Z,1.40
2018-09-21T22:46:50.899Z,1.13
2018-09-21T22:49:23.099Z,3.30
2018-09-21T22:51:51.408Z,1.97
2018-09-21T22:54:19.699Z,0.80
2018-09-21T22:56:48.009Z,4.00
2018-09-21T22:59:16.287Z,1.50
2018-09-21T23:01:44.611Z,2.03
2018-09-21T23:04:12.886Z,2.57
2018-09-21T23:06:41.175Z,2.83
2018-09-21T23:09:11.308Z,2.90
2018-09-21T23:11:40.018Z,3.33
2018-09-21T23:14:08.800Z,1.43
2018-09-21T23:16:37.115Z,1.97
2018-09-21T23:19:05.472Z,1.53
2018-09-21T23:21:34.050Z,3.20
2018-09-21T23:24:02.365Z,1.13
2018-09-21T23:26:30.679Z,1.57
2018-09-21T23:28:58.940Z,2.03
2018-09-21T23:31:27.272Z,1.77
2018-09-21T23:33:58.719Z,3.03
2018-09-21T23:36:27.015Z,2.47
2018-09-21T23:38:55.307Z,2.87
2018-09-21T23:41:23.582Z,2.30
2018-09-21T23:43:51.879Z,1.13
2018-09-21T23:46:20.168Z,3.20
2018-09-21T23:48:48.469Z,5.33
2018-09-21T23:51:16.731Z,4.47
2018-09-21T23:53:45.053Z,3.20
2018-09-21T23:56:13.363Z,2.10
2018-09-21T23:58:41.675Z,1.70
